sensor_id;sensor_type;location;lat;lon;timestamp;temperature;humidity
33580;DHT22;19909;43.644;-79.438;2022-11-09T00:00:43;20.90;42.60
33580;DHT22;19909;43.644;-79.438;2022-11-09T00:03:10;20.90;42.60
33580;DHT22;19909;43.644;-79.438;2022-11-09T00:05:37;20.90;42.50
33580;DHT22;19909;43.644;-79.438;2022-11-09T00:08:08;20.90;42.40
33580;DHT22;19909;43.644;-79.438;2022-11-09T00:10:36;20.90;42.40
33580;DHT22;19909;43.644;-79.438;2022-11-09T00:13:03;20.90;42.40
33580;DHT22;19909;43.644;-79.438;2022-11-09T00:15:29;20.90;42.60
33580;DHT22;19909;43.644;-79.438;2022-11-09T00:17:59;20.90;42.50
33580;DHT22;19909;43.644;-79.438;2022-11-09T00:20:27;20.90;42.50
33580;DHT22;19909;43.644;-79.438;2022-11-09T00:22:54;20.90;42.40
33580;DHT22;19909;43.644;-79.438;2022-11-09T00:25:20;20.90;42.40
33580;DHT22;19909;43.644;-79.438;2022-11-09T00:27:46;20.80;42.40
33580;DHT22;19909;43.644;-79.438;2022-11-09T00:30:13;20.80;42.50
33580;DHT22;19909;43.644;-79.438;2022-11-09T00:32:40;20.90;42.60
33580;DHT22;19909;43.644;-79.438;2022-11-09T00:35:06;20.80;42.40
33580;DHT22;19909;43.644;-79.438;2022-11-09T00:37:33;20.90;42.50
33580;DHT22;19909;43.644;-79.438;2022-11-09T00:40:00;20.90;42.40
33580;DHT22;19909;43.644;-79.438;2022-11-09T00:42:26;20.80;42.40
33580;DHT22;19909;43.644;-79.438;2022-11-09T00:44:53;20.80;42.40
33580;DHT22;19909;43.644;-79.438;2022-11-09T00:47:19;20.90;42.50
33580;DHT22;19909;43.644;-79.438;2022-11-09T00:49:48;20.90;43.10
33580;DHT22;19909;43.644;-79.438;2022-11-09T00:52:15;20.90;42.50
33580;DHT22;19909;43.644;-79.438;2022-11-09T00:54:41;20.80;42.30
33580;DHT22;19909;43.644;-79.438;2022-11-09T00:57:07;20.90;42.40
33580;DHT22;19909;43.644;-79.438;2022-11-09T00:59:34;20.90;42.50
33580;DHT22;19909;43.644;-79.438;2022-11-09T01:02:00;20.90;42.50
33580;DHT22;19909;43.644;-79.438;2022-11-09T01:04:26;20.90;42.50
33580;DHT22;19909;43.644;-79.438;2022-11-09T01:06:53;20.80;42.40
33580;DHT22;19909;43.644;-79.438;2022-11-09T01:09:19;20.90;42.40
33580;DHT22;19909;43.644;-79.438;2022-11-09T01:11:46;20.80;42.40
33580;DHT22;19909;43.644;-79.438;2022-11-09T01:14:12;20.80;42.40
33580;DHT22;19909;43.644;-79.438;2022-11-09T01:16:38;20.90;42.50
33580;DHT22;19909;43.644;-79.438;2022-11-09T01:19:05;20.90;42.50
33580;DHT22;19909;43.644;-79.438;2022-11-09T01:21:32;20.80;42.30
33580;DHT22;19909;43.644;-79.438;2022-11-09T01:23:58;20.80;42.30
33580;DHT22;19909;43.644;-79.438;2022-11-09T01:26:27;20.80;42.40
33580;DHT22;19909;43.644;-79.438;2022-11-09T01:28:53;20.80;42.40
33580;DHT22;19909;43.644;-79.438;2022-11-09T01:31:20;20.80;42.50
33580;DHT22;19909;43.644;-79.438;2022-11-09T01:33:48;20.80;42.40
33580;DHT22;19909;43.644;-79.438;2022-11-09T01:36:17;20.90;42.40
33580;DHT22;19909;43.644;-79.438;2022-11-09T01:38:44;20.80;42.20
33580;DHT22;19909;43.644;-79.438;2022-11-09T01:41:19;20.80;42.30
33580;DHT22;19909;43.644;-79.438;2022-11-09T01:46:56;20.90;42.50
33580;DHT22;19909;43.644;-79.438;2022-11-09T01:49:50;20.80;42.40
33580;DHT22;19909;43.644;-79.438;2022-11-09T01:52:28;20.80;42.40
33580;DHT22;19909;43.644;-79.438;2022-11-09T01:55:03;20.80;42.30
33580;DHT22;19909;43.644;-79.438;2022-11-09T01:57:39;20.80;42.40
33580;DHT22;19909;43.644;-79.438;2022-11-09T02:00:10;20.80;42.40
33580;DHT22;19909;43.644;-79.438;2022-11-09T02:02:39;20.80;42.50
33580;DHT22;19909;43.644;-79.438;2022-11-09T02:05:11;20.80;42.40
33580;DHT22;19909;43.644;-79.438;2022-11-09T02:07:40;20.80;42.30
33580;DHT22;19909;43.644;-79.438;2022-11-09T02:10:22;20.80;42.20
33580;DHT22;19909;43.644;-79.438;2022-11-09T02:12:51;20.80;42.40
33580;DHT22;19909;43.644;-79.438;2022-11-09T02:15:20;20.80;42.50
33580;DHT22;19909;43.644;-79.438;2022-11-09T02:17:50;20.80;42.40
33580;DHT22;19909;43.644;-79.438;2022-11-09T02:20:18;20.80;42.40
33580;DHT22;19909;43.644;-79.438;2022-11-09T02:22:45;20.80;42.30
33580;DHT22;19909;43.644;-79.438;2022-11-09T02:25:16;20.80;42.20
33580;DHT22;19909;43.644;-79.438;2022-11-09T02:27:43;20.80;42.40
33580;DHT22;19909;43.644;-79.438;2022-11-09T02:30:11;20.80;42.40
33580;DHT22;19909;43.644;-79.438;2022-11-09T02:32:38;20.80;42.40
33580;DHT22;19909;43.644;-79.438;2022-11-09T02:35:05;20.80;42.30
33580;DHT22;19909;43.644;-79.438;2022-11-09T02:37:49;20.80;42.20
33580;DHT22;19909;43.644;-79.438;2022-11-09T02:40:23;20.80;42.20
33580;DHT22;19909;43.644;-79.438;2022-11-09T02:42:52;20.80;42.30
33580;DHT22;19909;43.644;-79.438;2022-11-09T02:45:18;20.80;42.40
33580;DHT22;19909;43.644;-79.438;2022-11-09T02:47:45;20.80;42.40
33580;DHT22;19909;43.644;-79.438;2022-11-09T02:50:11;20.80;42.30
33580;DHT22;19909;43.644;-79.438;2022-11-09T02:52:38;20.80;42.20
33580;DHT22;19909;43.644;-79.438;2022-11-09T02:55:05;20.80;42.20
33580;DHT22;19909;43.644;-79.438;2022-11-09T02:57:31;20.80;42.20
33580;DHT22;19909;43.644;-79.438;2022-11-09T02:59:58;20.80;43.00
33580;DHT22;19909;43.644;-79.438;2022-11-09T03:02:25;20.80;42.40
33580;DHT22;19909;43.644;-79.438;2022-11-09T03:04:51;20.80;42.30
33580;DHT22;19909;43.644;-79.438;2022-11-09T03:07:18;20.80;42.20
33580;DHT22;19909;43.644;-79.438;2022-11-09T03:09:44;20.80;42.20
33580;DHT22;19909;43.644;-79.438;2022-11-09T03:12:11;20.80;42.30
33580;DHT22;19909;43.644;-79.438;2022-11-09T03:15:06;20.80;42.40
33580;DHT22;19909;43.644;-79.438;2022-11-09T03:17:33;20.80;42.40
33580;DHT22;19909;43.644;-79.438;2022-11-09T03:20:00;20.80;42.30
33580;DHT22;19909;43.644;-79.438;2022-11-09T03:22:27;20.80;42.30
33580;DHT22;19909;43.644;-79.438;2022-11-09T03:24:54;20.80;42.20
33580;DHT22;19909;43.644;-79.438;2022-11-09T03:27:20;20.80;42.40
33580;DHT22;19909;43.644;-79.438;2022-11-09T03:29:47;20.80;42.40
33580;DHT22;19909;43.644;-79.438;2022-11-09T03:32:13;20.80;42.40
33580;DHT22;19909;43.644;-79.438;2022-11-09T03:34:40;20.80;42.30
33580;DHT22;19909;43.644;-79.438;2022-11-09T03:37:06;20.80;42.20
33580;DHT22;19909;43.644;-79.438;2022-11-09T03:39:32;20.70;42.10
33580;DHT22;19909;43.644;-79.438;2022-11-09T03:41:59;20.80;42.30
33580;DHT22;19909;43.644;-79.438;2022-11-09T03:44:25;20.80;42.40
33580;DHT22;19909;43.644;-79.438;2022-11-09T03:46:52;20.80;42.50
33580;DHT22;19909;43.644;-79.438;2022-11-09T03:49:19;20.70;42.30
33580;DHT22;19909;43.644;-79.438;2022-11-09T03:51:45;20.80;42.30
33580;DHT22;19909;43.644;-79.438;2022-11-09T03:54:11;20.80;42.20
33580;DHT22;19909;43.644;-79.438;2022-11-09T03:56:38;20.80;42.30
33580;DHT22;19909;43.644;-79.438;2022-11-09T03:59:05;20.80;42.40
33580;DHT22;19909;43.644;-79.438;2022-11-09T04:01:31;20.70;42.40
33580;DHT22;19909;43.644;-79.438;2022-11-09T04:03:58;20.80;42.40
33580;DHT22;19909;43.644;-79.438;2022-11-09T04:06:24;20.80;42.30
33580;DHT22;19909;43.644;-79.438;2022-11-09T04:08:51;20.80;42.20
33580;DHT22;19909;43.644;-79.438;2022-11-09T04:11:17;20.70;42.10
33580;DHT22;19909;43.644;-79.438;2022-11-09T04:13:44;20.80;42.30
33580;DHT22;19909;43.644;-79.438;2022-11-09T04:16:10;20.70;42.30
33580;DHT22;19909;43.644;-79.438;2022-11-09T04:18:37;20.80;42.40
33580;DHT22;19909;43.644;-79.438;2022-11-09T04:21:03;20.80;42.20
33580;DHT22;19909;43.644;-79.438;2022-11-09T04:23:30;20.70;42.10
33580;DHT22;19909;43.644;-79.438;2022-11-09T04:25:57;20.70;42.20
33580;DHT22;19909;43.644;-79.438;2022-11-09T04:28:24;20.70;42.20
33580;DHT22;19909;43.644;-79.438;2022-11-09T04:30:51;20.70;42.30
33580;DHT22;19909;43.644;-79.438;2022-11-09T04:33:17;20.80;42.40
33580;DHT22;19909;43.644;-79.438;2022-11-09T04:35:44;20.80;42.30
33580;DHT22;19909;43.644;-79.438;2022-11-09T04:38:12;20.80;42.20
33580;DHT22;19909;43.644;-79.438;2022-11-09T04:40:39;20.70;42.20
33580;DHT22;19909;43.644;-79.438;2022-11-09T04:43:11;20.70;42.30
33580;DHT22;19909;43.644;-79.438;2022-11-09T04:45:38;20.70;42.40
33580;DHT22;19909;43.644;-79.438;2022-11-09T04:48:06;20.70;42.40
33580;DHT22;19909;43.644;-79.438;2022-11-09T04:50:33;20.70;42.20
33580;DHT22;19909;43.644;-79.438;2022-11-09T04:53:06;20.70;42.20
33580;DHT22;19909;43.644;-79.438;2022-11-09T04:55:33;20.70;42.10
33580;DHT22;19909;43.644;-79.438;2022-11-09T04:57:59;20.70;42.40
33580;DHT22;19909;43.644;-79.438;2022-11-09T05:00:26;20.70;42.40
33580;DHT22;19909;43.644;-79.438;2022-11-09T05:02:52;20.70;42.30
33580;DHT22;19909;43.644;-79.438;2022-11-09T05:05:19;20.70;42.30
33580;DHT22;19909;43.644;-79.438;2022-11-09T05:07:45;20.70;42.20
33580;DHT22;19909;43.644;-79.438;2022-11-09T05:10:12;20.70;42.10
33580;DHT22;19909;43.644;-79.438;2022-11-09T05:12:38;20.70;42.30
33580;DHT22;19909;43.644;-79.438;2022-11-09T05:15:05;20.70;42.40
33580;DHT22;19909;43.644;-79.438;2022-11-09T05:17:31;20.70;42.40
33580;DHT22;19909;43.644;-79.438;2022-11-09T05:19:58;20.70;42.20
33580;DHT22;19909;43.644;-79.438;2022-11-09T05:22:24;20.70;42.20
33580;DHT22;19909;43.644;-79.438;2022-11-09T05:25:09;20.70;42.10
33580;DHT22;19909;43.644;-79.438;2022-11-09T05:27:37;20.70;42.30
33580;DHT22;19909;43.644;-79.438;2022-11-09T05:30:04;20.70;42.40
33580;DHT22;19909;43.644;-79.438;2022-11-09T05:32:31;20.70;42.40
33580;DHT22;19909;43.644;-79.438;2022-11-09T05:34:57;20.70;42.20
33580;DHT22;19909;43.644;-79.438;2022-11-09T05:37:23;20.70;42.20
33580;DHT22;19909;43.644;-79.438;2022-11-09T05:39:50;20.70;42.10
33580;DHT22;19909;43.644;-79.438;2022-11-09T05:42:16;20.70;42.20
33580;DHT22;19909;43.644;-79.438;2022-11-09T05:44:42;20.70;42.30
33580;DHT22;19909;43.644;-79.438;2022-11-09T05:47:09;20.70;42.40
33580;DHT22;19909;43.644;-79.438;2022-11-09T05:49:35;20.70;42.20
33580;DHT22;19909;43.644;-79.438;2022-11-09T05:52:02;20.70;42.10
33580;DHT22;19909;43.644;-79.438;2022-11-09T05:54:28;20.70;42.20
33580;DHT22;19909;43.644;-79.438;2022-11-09T05:56:54;20.70;42.20
33580;DHT22;19909;43.644;-79.438;2022-11-09T05:59:21;20.70;42.40
33580;DHT22;19909;43.644;-79.438;2022-11-09T06:01:48;20.70;42.40
33580;DHT22;19909;43.644;-79.438;2022-11-09T06:04:14;20.70;42.30
33580;DHT22;19909;43.644;-79.438;2022-11-09T06:06:42;20.70;42.20
33580;DHT22;19909;43.644;-79.438;2022-11-09T06:09:09;20.70;42.10
33580;DHT22;19909;43.644;-79.438;2022-11-09T06:11:35;20.70;42.20
33580;DHT22;19909;43.644;-79.438;2022-11-09T06:14:01;20.70;42.30
33580;DHT22;19909;43.644;-79.438;2022-11-09T06:16:28;20.70;42.40
33580;DHT22;19909;43.644;-79.438;2022-11-09T06:18:55;20.70;42.20
33580;DHT22;19909;43.644;-79.438;2022-11-09T06:21:22;20.70;42.20
33580;DHT22;19909;43.644;-79.438;2022-11-09T06:23:49;20.70;42.10
33580;DHT22;19909;43.644;-79.438;2022-11-09T06:26:15;20.70;42.10
33580;DHT22;19909;43.644;-79.438;2022-11-09T06:28:42;20.70;42.30
33580;DHT22;19909;43.644;-79.438;2022-11-09T06:31:13;20.70;42.30
33580;DHT22;19909;43.644;-79.438;2022-11-09T06:33:40;20.70;42.20
33580;DHT22;19909;43.644;-79.438;2022-11-09T06:36:07;20.70;42.10
33580;DHT22;19909;43.644;-79.438;2022-11-09T06:38:34;20.70;42.10
33580;DHT22;19909;43.644;-79.438;2022-11-09T06:41:01;20.60;42.10
33580;DHT22;19909;43.644;-79.438;2022-11-09T06:43:28;20.60;42.20
33580;DHT22;19909;43.644;-79.438;2022-11-09T06:45:54;20.60;42.30
33580;DHT22;19909;43.644;-79.438;2022-11-09T06:48:22;20.70;42.30
33580;DHT22;19909;43.644;-79.438;2022-11-09T06:50:49;20.60;42.10
33580;DHT22;19909;43.644;-79.438;2022-11-09T06:53:16;20.60;42.10
33580;DHT22;19909;43.644;-79.438;2022-11-09T06:55:43;20.60;42.10
33580;DHT22;19909;43.644;-79.438;2022-11-09T06:58:12;20.60;42.20
33580;DHT22;19909;43.644;-79.438;2022-11-09T07:00:42;20.70;42.20
33580;DHT22;19909;43.644;-79.438;2022-11-09T07:03:15;20.70;42.20
33580;DHT22;19909;43.644;-79.438;2022-11-09T07:05:43;20.60;42.10
33580;DHT22;19909;43.644;-79.438;2022-11-09T07:08:09;20.70;42.10
33580;DHT22;19909;43.644;-79.438;2022-11-09T07:10:36;20.60;42.00
33580;DHT22;19909;43.644;-79.438;2022-11-09T07:13:04;20.70;42.10
33580;DHT22;19909;43.644;-79.438;2022-11-09T07:15:31;20.60;42.20
33580;DHT22;19909;43.644;-79.438;2022-11-09T07:17:59;20.60;42.10
33580;DHT22;19909;43.644;-79.438;2022-11-09T07:20:26;20.70;42.20
33580;DHT22;19909;43.644;-79.438;2022-11-09T07:22:53;20.60;42.10
33580;DHT22;19909;43.644;-79.438;2022-11-09T07:25:20;20.60;42.00
33580;DHT22;19909;43.644;-79.438;2022-11-09T07:27:46;20.60;42.10
33580;DHT22;19909;43.644;-79.438;2022-11-09T07:30:13;20.60;42.10
33580;DHT22;19909;43.644;-79.438;2022-11-09T07:32:40;20.70;42.20
33580;DHT22;19909;43.644;-79.438;2022-11-09T07:35:07;20.60;42.10
33580;DHT22;19909;43.644;-79.438;2022-11-09T07:37:35;20.60;42.00
33580;DHT22;19909;43.644;-79.438;2022-11-09T07:40:01;20.60;42.00
33580;DHT22;19909;43.644;-79.438;2022-11-09T07:42:27;20.60;42.00
33580;DHT22;19909;43.644;-79.438;2022-11-09T07:44:54;20.60;42.10
33580;DHT22;19909;43.644;-79.438;2022-11-09T07:47:21;20.60;42.20
33580;DHT22;19909;43.644;-79.438;2022-11-09T07:49:47;20.60;42.10
33580;DHT22;19909;43.644;-79.438;2022-11-09T07:52:13;20.60;42.00
33580;DHT22;19909;43.644;-79.438;2022-11-09T07:54:40;20.60;42.00
33580;DHT22;19909;43.644;-79.438;2022-11-09T07:57:07;20.60;42.10
33580;DHT22;19909;43.644;-79.438;2022-11-09T07:59:33;20.60;42.10
33580;DHT22;19909;43.644;-79.438;2022-11-09T08:02:00;20.60;42.20
33580;DHT22;19909;43.644;-79.438;2022-11-09T08:04:26;20.60;42.10
33580;DHT22;19909;43.644;-79.438;2022-11-09T08:06:53;20.60;42.00
33580;DHT22;19909;43.644;-79.438;2022-11-09T08:09:19;20.60;42.00
33580;DHT22;19909;43.644;-79.438;2022-11-09T08:11:46;20.60;42.00
33580;DHT22;19909;43.644;-79.438;2022-11-09T08:14:13;20.60;42.10
33580;DHT22;19909;43.644;-79.438;2022-11-09T08:16:39;20.60;42.20
33580;DHT22;19909;43.644;-79.438;2022-11-09T08:19:05;20.60;42.10
33580;DHT22;19909;43.644;-79.438;2022-11-09T08:21:35;20.60;42.00
33580;DHT22;19909;43.644;-79.438;2022-11-09T08:24:02;20.60;42.00
33580;DHT22;19909;43.644;-79.438;2022-11-09T08:26:31;20.60;42.10
33580;DHT22;19909;43.644;-79.438;2022-11-09T08:28:57;20.60;42.10
33580;DHT22;19909;43.644;-79.438;2022-11-09T08:31:24;20.60;42.10
33580;DHT22;19909;43.644;-79.438;2022-11-09T08:33:50;20.60;42.10
33580;DHT22;19909;43.644;-79.438;2022-11-09T08:36:17;20.60;42.00
33580;DHT22;19909;43.644;-79.438;2022-11-09T08:38:44;20.60;42.50
33580;DHT22;19909;43.644;-79.438;2022-11-09T08:41:12;20.60;42.00
33580;DHT22;19909;43.644;-79.438;2022-11-09T08:43:38;20.60;42.10
33580;DHT22;19909;43.644;-79.438;2022-11-09T08:46:05;20.60;42.20
33580;DHT22;19909;43.644;-79.438;2022-11-09T08:48:32;20.60;42.10
33580;DHT22;19909;43.644;-79.438;2022-11-09T08:50:59;20.60;42.00
33580;DHT22;19909;43.644;-79.438;2022-11-09T08:53:27;20.60;42.00
33580;DHT22;19909;43.644;-79.438;2022-11-09T08:55:54;20.60;42.00
33580;DHT22;19909;43.644;-79.438;2022-11-09T08:58:21;20.60;42.10
33580;DHT22;19909;43.644;-79.438;2022-11-09T09:00:47;20.60;42.10
33580;DHT22;19909;43.644;-79.438;2022-11-09T09:03:14;20.60;42.10
33580;DHT22;19909;43.644;-79.438;2022-11-09T09:05:40;20.60;42.00
33580;DHT22;19909;43.644;-79.438;2022-11-09T09:08:07;20.60;42.00
33580;DHT22;19909;43.644;-79.438;2022-11-09T09:10:36;20.60;41.90
33580;DHT22;19909;43.644;-79.438;2022-11-09T09:13:03;20.60;42.00
33580;DHT22;19909;43.644;-79.438;2022-11-09T09:15:30;20.60;42.10
33580;DHT22;19909;43.644;-79.438;2022-11-09T09:17:59;20.60;42.10
33580;DHT22;19909;43.644;-79.438;2022-11-09T09:20:26;20.60;42.00
33580;DHT22;19909;43.644;-79.438;2022-11-09T09:22:56;20.60;41.90
33580;DHT22;19909;43.644;-79.438;2022-11-09T09:25:22;20.60;41.80
33580;DHT22;19909;43.644;-79.438;2022-11-09T09:27:49;20.50;41.90
33580;DHT22;19909;43.644;-79.438;2022-11-09T09:30:16;20.50;42.00
33580;DHT22;19909;43.644;-79.438;2022-11-09T09:32:42;20.50;42.10
33580;DHT22;19909;43.644;-79.438;2022-11-09T09:35:09;20.60;42.00
33580;DHT22;19909;43.644;-79.438;2022-11-09T09:37:36;20.60;42.00
33580;DHT22;19909;43.644;-79.438;2022-11-09T09:40:02;20.50;41.80
33580;DHT22;19909;43.644;-79.438;2022-11-09T09:42:39;20.60;42.00
33580;DHT22;19909;43.644;-79.438;2022-11-09T09:45:23;20.50;42.00
33580;DHT22;19909;43.644;-79.438;2022-11-09T09:48:17;20.60;42.10
33580;DHT22;19909;43.644;-79.438;2022-11-09T09:50:49;20.60;42.00
33580;DHT22;19909;43.644;-79.438;2022-11-09T09:53:30;20.60;42.00
33580;DHT22;19909;43.644;-79.438;2022-11-09T09:56:08;20.50;41.80
33580;DHT22;19909;43.644;-79.438;2022-11-09T09:58:37;20.50;42.10
33580;DHT22;19909;43.644;-79.438;2022-11-09T10:01:18;20.50;42.00
33580;DHT22;19909;43.644;-79.438;2022-11-09T10:03:46;20.50;42.60
33580;DHT22;19909;43.644;-79.438;2022-11-09T10:06:37;20.50;41.90
33580;DHT22;19909;43.644;-79.438;2022-11-09T10:23:02;20.50;41.90
33580;DHT22;19909;43.644;-79.438;2022-11-09T10:25:36;20.50;41.90
33580;DHT22;19909;43.644;-79.438;2022-11-09T10:28:13;20.60;42.00
33580;DHT22;19909;43.644;-79.438;2022-11-09T10:30:39;20.50;42.00
33580;DHT22;19909;43.644;-79.438;2022-11-09T10:36:14;20.50;41.90
33580;DHT22;19909;43.644;-79.438;2022-11-09T10:38:48;20.50;41.90
33580;DHT22;19909;43.644;-79.438;2022-11-09T10:41:32;20.50;41.80
33580;DHT22;19909;43.644;-79.438;2022-11-09T10:43:59;20.50;42.00
33580;DHT22;19909;43.644;-79.438;2022-11-09T10:46:26;20.50;42.00
33580;DHT22;19909;43.644;-79.438;2022-11-09T10:48:53;20.50;42.00
33580;DHT22;19909;43.644;-79.438;2022-11-09T10:51:40;20.50;41.90
33580;DHT22;19909;43.644;-79.438;2022-11-09T10:54:20;20.50;41.80
33580;DHT22;19909;43.644;-79.438;2022-11-09T10:57:11;20.50;41.90
33580;DHT22;19909;43.644;-79.438;2022-11-09T10:59:42;20.50;41.90
33580;DHT22;19909;43.644;-79.438;2022-11-09T11:07:33;20.50;41.80
33580;DHT22;19909;43.644;-79.438;2022-11-09T11:13:22;20.50;41.90
33580;DHT22;19909;43.644;-79.438;2022-11-09T11:15:40;20.50;42.50
33580;DHT22;19909;43.644;-79.438;2022-11-09T11:18:22;20.50;41.90
33580;DHT22;19909;43.644;-79.438;2022-11-09T11:21:22;20.50;41.80
33580;DHT22;19909;43.644;-79.438;2022-11-09T11:24:17;20.50;41.80
33580;DHT22;19909;43.644;-79.438;2022-11-09T11:29:49;20.50;41.80
33580;DHT22;19909;43.644;-79.438;2022-11-09T11:32:19;20.50;41.80
33580;DHT22;19909;43.644;-79.438;2022-11-09T11:34:46;20.50;41.80
33580;DHT22;19909;43.644;-79.438;2022-11-09T11:40:00;20.50;41.70
33580;DHT22;19909;43.644;-79.438;2022-11-09T11:45:27;20.50;41.80
33580;DHT22;19909;43.644;-79.438;2022-11-09T11:51:12;20.50;41.80
33580;DHT22;19909;43.644;-79.438;2022-11-09T11:54:33;20.50;41.70
33580;DHT22;19909;43.644;-79.438;2022-11-09T11:56:38;20.50;41.70
33580;DHT22;19909;43.644;-79.438;2022-11-09T12:05:33;20.40;41.70
33580;DHT22;19909;43.644;-79.438;2022-11-09T12:08:34;20.40;41.60
33580;DHT22;19909;43.644;-79.438;2022-11-09T12:11:43;20.50;41.60
33580;DHT22;19909;43.644;-79.438;2022-11-09T12:22:17;20.40;41.60
33580;DHT22;19909;43.644;-79.438;2022-11-09T12:25:22;20.40;41.90
33580;DHT22;19909;43.644;-79.438;2022-11-09T12:31:03;20.40;41.70
33580;DHT22;19909;43.644;-79.438;2022-11-09T12:36:19;20.40;41.60
33580;DHT22;19909;43.644;-79.438;2022-11-09T12:39:12;20.40;41.50
33580;DHT22;19909;43.644;-79.438;2022-11-09T12:41:40;20.40;41.50
33580;DHT22;19909;43.644;-79.438;2022-11-09T12:47:20;20.40;41.70
33580;DHT22;19909;43.644;-79.438;2022-11-09T12:49:48;20.40;41.70
33580;DHT22;19909;43.644;-79.438;2022-11-09T12:52:17;20.50;41.60
33580;DHT22;19909;43.644;-79.438;2022-11-09T12:54:48;20.40;41.50
33580;DHT22;19909;43.644;-79.438;2022-11-09T12:57:28;20.40;41.50
33580;DHT22;19909;43.644;-79.438;2022-11-09T12:59:57;20.40;41.60
33580;DHT22;19909;43.644;-79.438;2022-11-09T13:02:32;20.40;41.60
33580;DHT22;19909;43.644;-79.438;2022-11-09T13:05:06;20.40;41.60
33580;DHT22;19909;43.644;-79.438;2022-11-09T13:10:17;20.40;41.50
33580;DHT22;19909;43.644;-79.438;2022-11-09T13:12:48;20.40;41.50
33580;DHT22;19909;43.644;-79.438;2022-11-09T13:15:24;20.40;41.60
33580;DHT22;19909;43.644;-79.438;2022-11-09T13:17:59;20.40;41.60
33580;DHT22;19909;43.644;-79.438;2022-11-09T13:23:19;20.40;41.50
33580;DHT22;19909;43.644;-79.438;2022-11-09T13:25:50;20.40;41.50
33580;DHT22;19909;43.644;-79.438;2022-11-09T13:30:57;20.40;41.70
33580;DHT22;19909;43.644;-79.438;2022-11-09T13:33:32;20.40;41.60
33580;DHT22;19909;43.644;-79.438;2022-11-09T13:38:35;20.40;42.10
33580;DHT22;19909;43.644;-79.438;2022-11-09T13:41:03;20.40;41.50
33580;DHT22;19909;43.644;-79.438;2022-11-09T13:44:06;20.40;41.60
33580;DHT22;19909;43.644;-79.438;2022-11-09T13:46:37;20.40;41.60
33580;DHT22;19909;43.644;-79.438;2022-11-09T13:52:03;20.40;41.60
33580;DHT22;19909;43.644;-79.438;2022-11-09T13:54:33;20.40;41.50
33580;DHT22;19909;43.644;-79.438;2022-11-09T13:57:05;20.40;41.60
33580;DHT22;19909;43.644;-79.438;2022-11-09T13:59:46;20.40;41.60
33580;DHT22;19909;43.644;-79.438;2022-11-09T14:02:20;20.40;41.70
33580;DHT22;19909;43.644;-79.438;2022-11-09T14:04:47;20.40;41.60
33580;DHT22;19909;43.644;-79.438;2022-11-09T14:10:07;20.40;41.50
33580;DHT22;19909;43.644;-79.438;2022-11-09T14:15:50;20.40;41.60
33580;DHT22;19909;43.644;-79.438;2022-11-09T14:18:40;20.40;41.70
33580;DHT22;19909;43.644;-79.438;2022-11-09T14:21:29;20.40;41.70
33580;DHT22;19909;43.644;-79.438;2022-11-09T14:24:02;20.40;41.60
33580;DHT22;19909;43.644;-79.438;2022-11-09T14:26:35;20.40;41.70
33580;DHT22;19909;43.644;-79.438;2022-11-09T14:29:20;20.40;41.70
33580;DHT22;19909;43.644;-79.438;2022-11-09T14:31:47;20.40;41.80
33580;DHT22;19909;43.644;-79.438;2022-11-09T14:34:15;20.40;41.70
33580;DHT22;19909;43.644;-79.438;2022-11-09T14:36:42;20.40;41.70
33580;DHT22;19909;43.644;-79.438;2022-11-09T14:39:30;20.40;41.60
33580;DHT22;19909;43.644;-79.438;2022-11-09T14:41:59;20.40;41.60
33580;DHT22;19909;43.644;-79.438;2022-11-09T14:44:40;20.40;41.70
33580;DHT22;19909;43.644;-79.438;2022-11-09T14:47:29;20.40;41.80
33580;DHT22;19909;43.644;-79.438;2022-11-09T14:49:57;20.40;41.70
33580;DHT22;19909;43.644;-79.438;2022-11-09T14:52:27;20.40;41.70
33580;DHT22;19909;43.644;-79.438;2022-11-09T14:54:55;20.40;41.60
33580;DHT22;19909;43.644;-79.438;2022-11-09T14:57:22;20.40;41.70
33580;DHT22;19909;43.644;-79.438;2022-11-09T14:59:49;20.40;41.80
33580;DHT22;19909;43.644;-79.438;2022-11-09T15:02:18;20.40;41.90
33580;DHT22;19909;43.644;-79.438;2022-11-09T15:07:23;20.40;41.70
33580;DHT22;19909;43.644;-79.438;2022-11-09T15:10:17;20.40;41.60
33580;DHT22;19909;43.644;-79.438;2022-11-09T15:12:49;20.40;41.70
33580;DHT22;19909;43.644;-79.438;2022-11-09T15:15:20;20.40;41.80
33580;DHT22;19909;43.644;-79.438;2022-11-09T15:17:47;20.40;42.40
33580;DHT22;19909;43.644;-79.438;2022-11-09T15:22:51;20.40;41.70
33580;DHT22;19909;43.644;-79.438;2022-11-09T15:30:39;20.40;41.80
33580;DHT22;19909;43.644;-79.438;2022-11-09T15:40:57;20.40;41.70
33580;DHT22;19909;43.644;-79.438;2022-11-09T15:43:24;20.40;41.80
33580;DHT22;19909;43.644;-79.438;2022-11-09T15:45:53;20.40;41.80
33580;DHT22;19909;43.644;-79.438;2022-11-09T15:48:20;20.40;41.90
33580;DHT22;19909;43.644;-79.438;2022-11-09T15:50:47;20.40;41.70
33580;DHT22;19909;43.644;-79.438;2022-11-09T15:53:13;20.40;41.70
33580;DHT22;19909;43.644;-79.438;2022-11-09T15:55:40;20.40;41.60
33580;DHT22;19909;43.644;-79.438;2022-11-09T15:58:12;20.40;41.70
33580;DHT22;19909;43.644;-79.438;2022-11-09T16:00:39;20.40;41.90
33580;DHT22;19909;43.644;-79.438;2022-11-09T16:03:06;20.40;41.90
33580;DHT22;19909;43.644;-79.438;2022-11-09T16:05:33;20.40;41.80
33580;DHT22;19909;43.644;-79.438;2022-11-09T16:07:59;20.40;41.80
33580;DHT22;19909;43.644;-79.438;2022-11-09T16:10:26;20.40;41.70
33580;DHT22;19909;43.644;-79.438;2022-11-09T16:12:54;20.40;41.70
33580;DHT22;19909;43.644;-79.438;2022-11-09T16:15:25;20.40;41.90
33580;DHT22;19909;43.644;-79.438;2022-11-09T16:17:52;20.40;41.90
33580;DHT22;19909;43.644;-79.438;2022-11-09T16:20:20;20.40;41.80
33580;DHT22;19909;43.644;-79.438;2022-11-09T16:22:46;20.40;41.70
33580;DHT22;19909;43.644;-79.438;2022-11-09T16:25:13;20.40;41.60
33580;DHT22;19909;43.644;-79.438;2022-11-09T16:27:41;20.40;41.80
33580;DHT22;19909;43.644;-79.438;2022-11-09T16:30:08;20.40;41.80
33580;DHT22;19909;43.644;-79.438;2022-11-09T16:32:36;20.40;41.90
33580;DHT22;19909;43.644;-79.438;2022-11-09T16:35:03;20.40;41.90
33580;DHT22;19909;43.644;-79.438;2022-11-09T16:37:33;20.40;41.70
33580;DHT22;19909;43.644;-79.438;2022-11-09T16:40:05;20.40;41.70
33580;DHT22;19909;43.644;-79.438;2022-11-09T16:42:33;20.40;41.80
33580;DHT22;19909;43.644;-79.438;2022-11-09T16:45:06;20.40;41.80
33580;DHT22;19909;43.644;-79.438;2022-11-09T16:47:37;20.40;41.90
33580;DHT22;19909;43.644;-79.438;2022-11-09T16:50:04;20.40;41.90
33580;DHT22;19909;43.644;-79.438;2022-11-09T16:52:31;20.40;41.80
33580;DHT22;19909;43.644;-79.438;2022-11-09T16:54:57;20.40;41.70
33580;DHT22;19909;43.644;-79.438;2022-11-09T16:57:24;20.40;41.70
33580;DHT22;19909;43.644;-79.438;2022-11-09T16:59:50;20.40;41.90